sensor_id;sensor_type;location;lat;lon;timestamp;pressure;altitude;pressure_sealevel;temperature;humidity
9289;BME280;4683;50.864;12.086;2024-01-16T00:01:09;97890.81;;;2.21;100.00
9289;BME280;4683;50.864;12.086;2024-01-16T00:04:00;97907.09;;;2.32;100.00
9289;BME280;4683;50.864;12.086;2024-01-16T00:06:43;97896.81;;;2.22;100.00
9289;BME280;4683;50.864;12.086;2024-01-16T00:09:16;97894.56;;;2.27;100.00
9289;BME280;4683;50.864;12.086;2024-01-16T00:11:47;97896.50;;;2.25;100.00
9289;BME280;4683;50.864;12.086;2024-01-16T00:14:36;97898.34;;;2.33;100.00
9289;BME280;4683;50.864;12.086;2024-01-16T00:17:06;97904.97;;;2.27;100.00
9289;BME280;4683;50.864;12.086;2024-01-16T00:19:38;97910.34;;;2.25;100.00
9289;BME280;4683;50.864;12.086;2024-01-16T00:22:09;97909.34;;;2.26;100.00
9289;BME280;4683;50.864;12.086;2024-01-16T00:25:01;97916.22;;;2.27;100.00
9289;BME280;4683;50.864;12.086;2024-01-16T00:27:30;97917.84;;;2.28;100.00
9289;BME280;4683;50.864;12.086;2024-01-16T00:30:05;97922.81;;;2.22;100.00
9289;BME280;4683;50.864;12.086;2024-01-16T00:32:40;97920.09;;;2.23;100.00
9289;BME280;4683;50.864;12.086;2024-01-16T00:35:10;97916.22;;;2.27;100.00
9289;BME280;4683;50.864;12.086;2024-01-16T00:37:38;97919.47;;;2.29;100.00
9289;BME280;4683;50.864;12.086;2024-01-16T00:40:08;97919.16;;;2.33;100.00
9289;BME280;4683;50.864;12.086;2024-01-16T00:42:48;97920.78;;;2.34;100.00
9289;BME280;4683;50.864;12.086;2024-01-16T00:45:19;97919.75;;;2.26;100.00
9289;BME280;4683;50.864;12.086;2024-01-16T00:47:48;97922.22;;;2.28;100.00
9289;BME280;4683;50.864;12.086;2024-01-16T00:50:20;97922.34;;;2.26;100.00
9289;BME280;4683;50.864;12.086;2024-01-16T00:53:08;97922.34;;;2.26;100.00
9289;BME280;4683;50.864;12.086;2024-01-16T00:55:54;97927.44;;;2.28;100.00
9289;BME280;4683;50.864;12.086;2024-01-16T00:58:23;97925.97;;;2.34;100.00
9289;BME280;4683;50.864;12.086;2024-01-16T01:00:53;97931.81;;;2.27;100.00
9289;BME280;4683;50.864;12.086;2024-01-16T01:03:22;97933.41;;;2.20;100.00
9289;BME280;4683;50.864;12.086;2024-01-16T01:05:55;97938.94;;;2.25;100.00
9289;BME280;4683;50.864;12.086;2024-01-16T01:12:32;97932.75;;;2.18;100.00
9289;BME280;4683;50.864;12.086;2024-01-16T01:15:01;97945.94;;;2.25;100.00
9289;BME280;4683;50.864;12.086;2024-01-16T01:17:32;97947.78;;;2.33;100.00
9289;BME280;4683;50.864;12.086;2024-01-16T01:20:18;97949.69;;;2.31;100.00
9289;BME280;4683;50.864;12.086;2024-01-16T01:22:47;97945.94;;;2.25;100.00
9289;BME280;4683;50.864;12.086;2024-01-16T01:25:15;97952.28;;;2.31;100.00
9289;BME280;4683;50.864;12.086;2024-01-16T01:27:45;97961.09;;;2.29;100.00
9289;BME280;4683;50.864;12.086;2024-01-16T01:30:17;97959.97;;;2.32;100.00
9289;BME280;4683;50.864;12.086;2024-01-16T01:32:48;97966.59;;;2.26;100.00
9289;BME280;4683;50.864;12.086;2024-01-16T01:35:21;97962.41;;;2.34;100.00
9289;BME280;4683;50.864;12.086;2024-01-16T01:37:51;97965.31;;;2.31;100.00
9289;BME280;4683;50.864;12.086;2024-01-16T01:40:22;97965.78;;;2.26;100.00
9289;BME280;4683;50.864;12.086;2024-01-16T01:43:20;97964.03;;;2.35;100.00
9289;BME280;4683;50.864;12.086;2024-01-16T01:46:08;97969.75;;;2.38;100.00
9289;BME280;4683;50.864;12.086;2024-01-16T01:48:41;97972.81;;;2.34;100.00
9289;BME280;4683;50.864;12.086;2024-01-16T01:51:24;97969.22;;;2.35;100.00
9289;BME280;4683;50.864;12.086;2024-01-16T01:54:04;97972.56;;;2.53;100.00
9289;BME280;4683;50.864;12.086;2024-01-16T01:56:35;97984.59;;;2.46;100.00
9289;BME280;4683;50.864;12.086;2024-01-16T01:59:05;97985.88;;;2.42;100.00
9289;BME280;4683;50.864;12.086;2024-01-16T02:01:54;97995.59;;;2.40;100.00
9289;BME280;4683;50.864;12.086;2024-01-16T02:04:44;97993.88;;;2.22;100.00
9289;BME280;4683;50.864;12.086;2024-01-16T02:07:26;98004.72;;;2.44;100.00
9289;BME280;4683;50.864;12.086;2024-01-16T02:09:56;98018.38;;;2.38;100.00
9289;BME280;4683;50.864;12.086;2024-01-16T02:12:26;98016.53;;;2.30;100.00
9289;BME280;4683;50.864;12.086;2024-01-16T02:14:57;98026.31;;;2.36;100.00
9289;BME280;4683;50.864;12.086;2024-01-16T02:17:36;98028.09;;;2.36;100.00
9289;BME280;4683;50.864;12.086;2024-01-16T02:20:12;98019.34;;;2.37;100.00
9289;BME280;4683;50.864;12.086;2024-01-16T02:22:45;98029.75;;;2.37;100.00
9289;BME280;4683;50.864;12.086;2024-01-16T02:25:29;98032.19;;;2.38;100.00
9289;BME280;4683;50.864;12.086;2024-01-16T02:28:00;98021.47;;;2.41;100.00
9289;BME280;4683;50.864;12.086;2024-01-16T02:30:33;98029.13;;;2.43;100.00
9289;BME280;4683;50.864;12.086;2024-01-16T02:33:03;98036.94;;;2.43;100.00
9289;BME280;4683;50.864;12.086;2024-01-16T02:35:34;98028.19;;;2.52;100.00
9289;BME280;4683;50.864;12.086;2024-01-16T02:38:18;98023.50;;;2.56;100.00
9289;BME280;4683;50.864;12.086;2024-01-16T02:41:08;98035.50;;;2.48;100.00
9289;BME280;4683;50.864;12.086;2024-01-16T02:44:07;98046.06;;;2.47;100.00
9289;BME280;4683;50.864;12.086;2024-01-16T02:46:36;98032.25;;;2.46;100.00
9289;BME280;4683;50.864;12.086;2024-01-16T02:49:09;98033.88;;;2.47;100.00
9289;BME280;4683;50.864;12.086;2024-01-16T02:51:37;98043.00;;;2.51;100.00
9289;BME280;4683;50.864;12.086;2024-01-16T02:54:07;98047.44;;;2.67;100.00
9289;BME280;4683;50.864;12.086;2024-01-16T02:57:00;98049.28;;;2.75;100.00
9289;BME280;4683;50.864;12.086;2024-01-16T02:59:48;98049.72;;;2.62;100.00
9289;BME280;4683;50.864;12.086;2024-01-16T03:02:17;98056.81;;;2.52;100.00
9289;BME280;4683;50.864;12.086;2024-01-16T03:04:47;98059.25;;;2.45;100.00
9289;BME280;4683;50.864;12.086;2024-01-16T03:07:29;98060.66;;;2.40;100.00
9289;BME280;4683;50.864;12.086;2024-01-16T03:09:57;98057.94;;;2.49;100.00
9289;BME280;4683;50.864;12.086;2024-01-16T03:12:28;98067.00;;;2.37;100.00
9289;BME280;4683;50.864;12.086;2024-01-16T03:14:57;98059.53;;;2.42;100.00
9289;BME280;4683;50.864;12.086;2024-01-16T03:17:29;98066.66;;;2.40;100.00
9289;BME280;4683;50.864;12.086;2024-01-16T03:23:57;98075.34;;;2.49;100.00
9289;BME280;4683;50.864;12.086;2024-01-16T03:26:26;98081.34;;;2.49;100.00
9289;BME280;4683;50.864;12.086;2024-01-16T03:29:11;98076.53;;;2.28;100.00
9289;BME280;4683;50.864;12.086;2024-01-16T03:31:52;98081.56;;;2.30;100.00
9289;BME280;4683;50.864;12.086;2024-01-16T03:34:43;98078.44;;;2.26;100.00
9289;BME280;4683;50.864;12.086;2024-01-16T03:37:26;98089.88;;;2.34;100.00
9289;BME280;4683;50.864;12.086;2024-01-16T03:40:17;98091.81;;;2.32;100.00
9289;BME280;4683;50.864;12.086;2024-01-16T03:42:46;98085.09;;;2.21;100.00
9289;BME280;4683;50.864;12.086;2024-01-16T03:45:19;98090.13;;;2.22;100.00
9289;BME280;4683;50.864;12.086;2024-01-16T03:48:06;98090.13;;;2.22;100.00
9289;BME280;4683;50.864;12.086;2024-01-16T03:50:46;98088.81;;;2.18;100.00
9289;BME280;4683;50.864;12.086;2024-01-16T03:53:18;98086.50;;;2.15;100.00
9289;BME280;4683;50.864;12.086;2024-01-16T03:55:47;98092.38;;;2.17;100.00
9289;BME280;4683;50.864;12.086;2024-01-16T03:58:17;98096.09;;;2.15;100.00
9289;BME280;4683;50.864;12.086;2024-01-16T04:00:50;98097.00;;;2.06;100.00
9289;BME280;4683;50.864;12.086;2024-01-16T04:03:40;98095.66;;;2.19;100.00
9289;BME280;4683;50.864;12.086;2024-01-16T04:06:16;98095.75;;;2.10;100.00
9289;BME280;4683;50.864;12.086;2024-01-16T04:08:46;98109.94;;;2.15;100.00
9289;BME280;4683;50.864;12.086;2024-01-16T04:11:15;98105.34;;;2.09;100.00
9289;BME280;4683;50.864;12.086;2024-01-16T04:13:48;98106.72;;;2.03;100.00
9289;BME280;4683;50.864;12.086;2024-01-16T04:16:19;98110.22;;;2.12;100.00
9289;BME280;4683;50.864;12.086;2024-01-16T04:18:48;98109.13;;;1.97;100.00
9289;BME280;4683;50.864;12.086;2024-01-16T04:21:29;98129.91;;;2.15;100.00
9289;BME280;4683;50.864;12.086;2024-01-16T04:23:58;98123.75;;;1.98;100.00
9289;BME280;4683;50.864;12.086;2024-01-16T04:26:27;98128.28;;;2.14;100.00
9289;BME280;4683;50.864;12.086;2024-01-16T04:28:59;98121.88;;;1.90;100.00
9289;BME280;4683;50.864;12.086;2024-01-16T04:31:30;98116.47;;;2.01;100.00
9289;BME280;4683;50.864;12.086;2024-01-16T04:33:59;98132.38;;;1.98;100.00
9289;BME280;4683;50.864;12.086;2024-01-16T04:36:31;98134.41;;;2.05;100.00
9289;BME280;4683;50.864;12.086;2024-01-16T04:39:14;98154.66;;;1.65;100.00
9289;BME280;4683;50.864;12.086;2024-01-16T04:41:43;98144.66;;;1.43;100.00
9289;BME280;4683;50.864;12.086;2024-01-16T04:44:12;98148.13;;;1.34;100.00
9289;BME280;4683;50.864;12.086;2024-01-16T04:46:45;98144.78;;;1.23;100.00
9289;BME280;4683;50.864;12.086;2024-01-16T04:49:16;98150.53;;;1.17;100.00
9289;BME280;4683;50.864;12.086;2024-01-16T04:51:47;98153.66;;;1.21;100.00
9289;BME280;4683;50.864;12.086;2024-01-16T04:54:17;98155.22;;;1.32;100.00
9289;BME280;4683;50.864;12.086;2024-01-16T04:56:49;98162.69;;;1.44;100.00
9289;BME280;4683;50.864;12.086;2024-01-16T04:59:21;98165.31;;;1.62;100.00
9289;BME280;4683;50.864;12.086;2024-01-16T05:01:59;98163.41;;;1.64;100.00
9289;BME280;4683;50.864;12.086;2024-01-16T05:04:29;98158.44;;;1.71;100.00
9289;BME280;4683;50.864;12.086;2024-01-16T05:06:59;98162.00;;;1.70;100.00
9289;BME280;4683;50.864;12.086;2024-01-16T05:09:45;98165.22;;;1.54;100.00
9289;BME280;4683;50.864;12.086;2024-01-16T05:12:14;98162.63;;;1.54;100.00
9289;BME280;4683;50.864;12.086;2024-01-16T05:14:43;98163.97;;;1.58;100.00
9289;BME280;4683;50.864;12.086;2024-01-16T05:17:14;98164.66;;;1.60;100.00
9289;BME280;4683;50.864;12.086;2024-01-16T05:19:43;98157.44;;;1.54;100.00
9289;BME280;4683;50.864;12.086;2024-01-16T05:22:14;98171.31;;;1.45;100.00
9289;BME280;4683;50.864;12.086;2024-01-16T05:24:44;98171.59;;;1.42;100.00
9289;BME280;4683;50.864;12.086;2024-01-16T05:27:14;98174.06;;;1.43;100.00
9289;BME280;4683;50.864;12.086;2024-01-16T05:29:44;98172.84;;;1.38;100.00
9289;BME280;4683;50.864;12.086;2024-01-16T05:32:16;98181.63;;;1.37;100.00
9289;BME280;4683;50.864;12.086;2024-01-16T05:34:44;98170.53;;;1.35;100.00
9289;BME280;4683;50.864;12.086;2024-01-16T05:37:15;98175.72;;;1.35;100.00
9289;BME280;4683;50.864;12.086;2024-01-16T05:39:59;98189.59;;;1.25;100.00
9289;BME280;4683;50.864;12.086;2024-01-16T05:42:28;98184.97;;;1.19;100.00
9289;BME280;4683;50.864;12.086;2024-01-16T05:44:57;98193.44;;;1.21;100.00
9289;BME280;4683;50.864;12.086;2024-01-16T05:47:33;98189.34;;;1.19;100.00
9289;BME280;4683;50.864;12.086;2024-01-16T05:50:05;98195.47;;;1.18;100.00
9289;BME280;4683;50.864;12.086;2024-01-16T05:52:36;98202.47;;;1.17;100.00
9289;BME280;4683;50.864;12.086;2024-01-16T05:55:06;98202.50;;;1.08;100.00
9289;BME280;4683;50.864;12.086;2024-01-16T05:57:35;98203.84;;;1.12;100.00
9289;BME280;4683;50.864;12.086;2024-01-16T06:00:08;98202.38;;;1.09;100.00
9289;BME280;4683;50.864;12.086;2024-01-16T06:02:39;98205.63;;;1.11;100.00
9289;BME280;4683;50.864;12.086;2024-01-16T06:05:08;98207.97;;;1.14;100.00
9289;BME280;4683;50.864;12.086;2024-01-16T06:07:39;98215.34;;;1.09;100.00
9289;BME280;4683;50.864;12.086;2024-01-16T06:10:13;98215.63;;;1.06;100.00
9289;BME280;4683;50.864;12.086;2024-01-16T06:13:00;98215.06;;;1.12;100.00
9289;BME280;4683;50.864;12.086;2024-01-16T06:15:38;98218.09;;;0.98;100.00
9289;BME280;4683;50.864;12.086;2024-01-16T06:18:13;98214.56;;;0.99;100.00
9289;BME280;4683;50.864;12.086;2024-01-16T06:20:45;98227.84;;;0.96;100.00
9289;BME280;4683;50.864;12.086;2024-01-16T06:23:19;98224.13;;;0.98;100.00
9289;BME280;4683;50.864;12.086;2024-01-16T06:25:51;98224.81;;;0.91;100.00
9289;BME280;4683;50.864;12.086;2024-01-16T06:28:21;98230.69;;;0.93;100.00
9289;BME280;4683;50.864;12.086;2024-01-16T06:30:51;98231.09;;;0.98;100.00
9289;BME280;4683;50.864;12.086;2024-01-16T06:33:22;98234.81;;;0.95;100.00
9289;BME280;4683;50.864;12.086;2024-01-16T06:36:18;98240.81;;;0.96;100.00
9289;BME280;4683;50.864;12.086;2024-01-16T06:38:48;98239.28;;;1.03;100.00
9289;BME280;4683;50.864;12.086;2024-01-16T06:41:17;98237.09;;;0.98;100.00
9289;BME280;4683;50.864;12.086;2024-01-16T06:43:48;98243.09;;;0.99;100.00
9289;BME280;4683;50.864;12.086;2024-01-16T06:46:17;98237.53;;;0.94;100.00
9289;BME280;4683;50.864;12.086;2024-01-16T06:48:47;98241.63;;;0.96;100.00
9289;BME280;4683;50.864;12.086;2024-01-16T06:51:19;98239.44;;;0.92;100.00
9289;BME280;4683;50.864;12.086;2024-01-16T06:53:51;98244.75;;;0.90;100.00
9289;BME280;4683;50.864;12.086;2024-01-16T06:56:26;98247.66;;;0.87;100.00
9289;BME280;4683;50.864;12.086;2024-01-16T06:59:17;98243.28;;;0.88;100.00
9289;BME280;4683;50.864;12.086;2024-01-16T07:02:01;98247.13;;;0.84;100.00
9289;BME280;4683;50.864;12.086;2024-01-16T07:04:32;98250.78;;;0.81;100.00
9289;BME280;4683;50.864;12.086;2024-01-16T07:07:02;98259.69;;;0.79;100.00
9289;BME280;4683;50.864;12.086;2024-01-16T07:09:37;98268.56;;;0.76;100.00
9289;BME280;4683;50.864;12.086;2024-01-16T07:12:09;98268.72;;;0.74;100.00
9289;BME280;4683;50.864;12.086;2024-01-16T07:14:38;98275.25;;;0.79;100.00
9289;BME280;4683;50.864;12.086;2024-01-16T07:17:34;98267.59;;;0.77;100.00
9289;BME280;4683;50.864;12.086;2024-01-16T07:20:13;98273.34;;;0.81;100.00
9289;BME280;4683;50.864;12.086;2024-01-16T07:22:43;98279.63;;;0.88;100.00
9289;BME280;4683;50.864;12.086;2024-01-16T07:25:14;98284.13;;;0.86;100.00
9289;BME280;4683;50.864;12.086;2024-01-16T07:27:43;98290.00;;;0.88;100.00
9289;BME280;4683;50.864;12.086;2024-01-16T07:30:27;98284.69;;;0.80;100.00
9289;BME280;4683;50.864;12.086;2024-01-16T07:33:01;98285.34;;;0.82;100.00
9289;BME280;4683;50.864;12.086;2024-01-16T07:35:33;98290.03;;;0.78;100.00
9289;BME280;4683;50.864;12.086;2024-01-16T07:38:05;98289.19;;;0.78;100.00
9289;BME280;4683;50.864;12.086;2024-01-16T07:40:35;98294.91;;;0.81;100.00
9289;BME280;4683;50.864;12.086;2024-01-16T07:43:17;98290.69;;;0.70;100.00
9289;BME280;4683;50.864;12.086;2024-01-16T07:45:53;98297.41;;;0.73;100.00
9289;BME280;4683;50.864;12.086;2024-01-16T07:48:22;98297.94;;;0.67;100.00
9289;BME280;4683;50.864;12.086;2024-01-16T07:50:54;98297.13;;;0.66;100.00
9289;BME280;4683;50.864;12.086;2024-01-16T07:53:30;98301.34;;;0.58;100.00
9289;BME280;4683;50.864;12.086;2024-01-16T07:56:01;98305.03;;;0.55;100.00
9289;BME280;4683;50.864;12.086;2024-01-16T07:58:31;98305.56;;;0.59;100.00
9289;BME280;4683;50.864;12.086;2024-01-16T08:01:19;98304.09;;;0.56;100.00
9289;BME280;4683;50.864;12.086;2024-01-16T08:03:48;98302.44;;;0.55;100.00
9289;BME280;4683;50.864;12.086;2024-01-16T08:06:24;98305.97;;;0.54;100.00
9289;BME280;4683;50.864;12.086;2024-01-16T08:08:54;98303.94;;;0.58;100.00
9289;BME280;4683;50.864;12.086;2024-01-16T08:11:23;98304.22;;;0.55;100.00
9289;BME280;4683;50.864;12.086;2024-01-16T08:13:54;98303.69;;;0.51;100.00
9289;BME280;4683;50.864;12.086;2024-01-16T08:16:32;98303.94;;;0.48;100.00
9289;BME280;4683;50.864;12.086;2024-01-16T08:19:13;98305.56;;;0.49;100.00
9289;BME280;4683;50.864;12.086;2024-01-16T08:21:50;98308.88;;;0.51;100.00
9289;BME280;4683;50.864;12.086;2024-01-16T08:24:20;98308.56;;;0.54;100.00
9289;BME280;4683;50.864;12.086;2024-01-16T08:27:26;98305.88;;;0.56;100.00
9289;BME280;4683;50.864;12.086;2024-01-16T08:30:00;98310.34;;;0.63;100.00
9289;BME280;4683;50.864;12.086;2024-01-16T08:32:31;98305.84;;;0.75;100.00
9289;BME280;4683;50.864;12.086;2024-01-16T08:35:01;98304.22;;;0.84;100.00
9289;BME280;4683;50.864;12.086;2024-01-16T08:37:34;98313.78;;;0.83;100.00
9289;BME280;4683;50.864;12.086;2024-01-16T08:40:04;98319.22;;;0.90;100.00
9289;BME280;4683;50.864;12.086;2024-01-16T08:42:36;98313.50;;;0.96;100.00
9289;BME280;4683;50.864;12.086;2024-01-16T08:45:07;98318.28;;;1.00;100.00
9289;BME280;4683;50.864;12.086;2024-01-16T08:47:40;98318.53;;;1.07;100.00
9289;BME280;4683;50.864;12.086;2024-01-16T08:50:09;98326.72;;;1.12;100.00
9289;BME280;4683;50.864;12.086;2024-01-16T08:52:42;98328.09;;;1.16;100.00
9289;BME280;4683;50.864;12.086;2024-01-16T08:55:13;98327.41;;;1.24;100.00
9289;BME280;4683;50.864;12.086;2024-01-16T08:57:43;98327.09;;;1.37;100.00
9289;BME280;4683;50.864;12.086;2024-01-16T09:00:13;98330.47;;;1.47;100.00
9289;BME280;4683;50.864;12.086;2024-01-16T09:02:44;98330.06;;;1.51;100.00
9289;BME280;4683;50.864;12.086;2024-01-16T09:05:20;98324.59;;;1.55;100.00
9289;BME280;4683;50.864;12.086;2024-01-16T09:08:15;98329.88;;;1.63;100.00
9289;BME280;4683;50.864;12.086;2024-01-16T09:10:46;98330.38;;;1.76;100.00
9289;BME280;4683;50.864;12.086;2024-01-16T09:13:15;98331.88;;;1.78;100.00
9289;BME280;4683;50.864;12.086;2024-01-16T09:15:46;98328.84;;;1.83;100.00
9289;BME280;4683;50.864;12.086;2024-01-16T09:18:28;98336.75;;;1.91;100.00
9289;BME280;4683;50.864;12.086;2024-01-16T09:21:14;98335.91;;;2.00;100.00
9289;BME280;4683;50.864;12.086;2024-01-16T09:23:45;98337.75;;;2.08;100.00
9289;BME280;4683;50.864;12.086;2024-01-16T09:26:27;98351.13;;;2.13;100.00
9289;BME280;4683;50.864;12.086;2024-01-16T09:29:00;98339.59;;;2.25;100.00
9289;BME280;4683;50.864;12.086;2024-01-16T09:31:32;98345.75;;;2.24;100.00
9289;BME280;4683;50.864;12.086;2024-01-16T09:34:18;98341.22;;;2.26;100.00
9289;BME280;4683;50.864;12.086;2024-01-16T09:36:48;98343.34;;;2.41;100.00
9289;BME280;4683;50.864;12.086;2024-01-16T09:39:19;98333.31;;;2.64;100.00
9289;BME280;4683;50.864;12.086;2024-01-16T09:41:49;98350.94;;;2.70;100.00
9289;BME280;4683;50.864;12.086;2024-01-16T09:44:20;98356.44;;;2.85;100.00
9289;BME280;4683;50.864;12.086;2024-01-16T09:46:51;98351.53;;;2.82;100.00
9289;BME280;4683;50.864;12.086;2024-01-16T09:49:32;98361.06;;;2.91;100.00
9289;BME280;4683;50.864;12.086;2024-01-16T09:52:06;98363.00;;;2.89;100.00
9289;BME280;4683;50.864;12.086;2024-01-16T09:54:54;98359.84;;;3.03;100.00
9289;BME280;4683;50.864;12.086;2024-01-16T09:57:28;98354.06;;;3.09;100.00
9289;BME280;4683;50.864;12.086;2024-01-16T09:59:58;98359.84;;;3.03;100.00
9289;BME280;4683;50.864;12.086;2024-01-16T10:02:31;98361.56;;;2.94;100.00
9289;BME280;4683;50.864;12.086;2024-01-16T10:05:05;98350.13;;;3.05;100.00
9289;BME280;4683;50.864;12.086;2024-01-16T10:07:55;98347.34;;;3.07;100.00
9289;BME280;4683;50.864;12.086;2024-01-16T10:10:27;98354.28;;;3.16;100.00
9289;BME280;4683;50.864;12.086;2024-01-16T10:13:12;98355.59;;;3.20;100.00
9289;BME280;4683;50.864;12.086;2024-01-16T10:16:02;98365.31;;;3.10;100.00
9289;BME280;4683;50.864;12.086;2024-01-16T10:18:32;98357.31;;;3.11;100.00
9289;BME280;4683;50.864;12.086;2024-01-16T10:21:26;98359.03;;;3.02;100.00
9289;BME280;4683;50.864;12.086;2024-01-16T10:24:16;98356.44;;;3.02;100.00
9289;BME280;4683;50.864;12.086;2024-01-16T10:27:07;98352.47;;;3.16;100.00
9289;BME280;4683;50.864;12.086;2024-01-16T10:29:37;98355.09;;;3.16;100.00
9289;BME280;4683;50.864;12.086;2024-01-16T10:32:29;98352.31;;;3.18;100.00
9289;BME280;4683;50.864;12.086;2024-01-16T10:35:11;98348.78;;;3.01;100.00
9289;BME280;4683;50.864;12.086;2024-01-16T10:37:55;98351.84;;;2.96;100.00
9289;BME280;4683;50.864;12.086;2024-01-16T10:40:46;98345.13;;;3.12;100.00
9289;BME280;4683;50.864;12.086;2024-01-16T10:43:18;98354.78;;;3.19;100.00
9289;BME280;4683;50.864;12.086;2024-01-16T10:45:49;98340.50;;;3.23;100.00
9289;BME280;4683;50.864;12.086;2024-01-16T10:49:01;98341.03;;;3.09;100.00
9289;BME280;4683;50.864;12.086;2024-01-16T10:51:30;98344.91;;;3.05;100.00
9289;BME280;4683;50.864;12.086;2024-01-16T10:54:03;98340.06;;;3.10;100.00
9289;BME280;4683;50.864;12.086;2024-01-16T10:56:37;98341.41;;;3.14;100.00
9289;BME280;4683;50.864;12.086;2024-01-16T10:59:31;98341.41;;;3.14;100.00
9289;BME280;4683;50.864;12.086;2024-01-16T11:02:06;98350.69;;;3.17;100.00
9289;BME280;4683;50.864;12.086;2024-01-16T11:04:49;98344.03;;;3.22;100.00
9289;BME280;4683;50.864;12.086;2024-01-16T11:07:22;98341.16;;;3.25;100.00
9289;BME280;4683;50.864;12.086;2024-01-16T11:09:55;98341.44;;;3.22;100.00
9289;BME280;4683;50.864;12.086;2024-01-16T11:12:29;98353.88;;;3.28;100.00
9289;BME280;4683;50.864;12.086;2024-01-16T11:15:24;98343.31;;;3.12;100.00
9289;BME280;4683;50.864;12.086;2024-01-16T11:18:17;98343.91;;;3.24;100.00
9289;BME280;4683;50.864;12.086;2024-01-16T11:20:48;98336.31;;;3.13;100.00
9289;BME280;4683;50.864;12.086;2024-01-16T11:23:22;98341.31;;;3.24;100.00
9289;BME280;4683;50.864;12.086;2024-01-16T11:25:54;98337.72;;;3.25;100.00
9289;BME280;4683;50.864;12.086;2024-01-16T11:28:28;98341.16;;;3.25;100.00
9289;BME280;4683;50.864;12.086;2024-01-16T11:31:28;98337.31;;;3.12;100.00
9289;BME280;4683;50.864;12.086;2024-01-16T11:34:01;98335.13;;;3.25;100.00
9289;BME280;4683;50.864;12.086;2024-01-16T11:37:00;98333.63;;;3.22;100.00
9289;BME280;4683;50.864;12.086;2024-01-16T11:39:29;98341.84;;;3.27;100.00
9289;BME280;4683;50.864;12.086;2024-01-16T11:42:09;98336.22;;;3.22;100.00
9289;BME280;4683;50.864;12.086;2024-01-16T11:44:46;98337.66;;;3.17;100.00
9289;BME280;4683;50.864;12.086;2024-01-16T11:47:20;98340.72;;;3.12;100.00
9289;BME280;4683;50.864;12.086;2024-01-16T11:49:51;98333.94;;;3.19;100.00
9289;BME280;4683;50.864;12.086;2024-01-16T11:52:41;98337.13;;;3.13;100.00
9289;BME280;4683;50.864;12.086;2024-01-16T11:55:47;98340.50;;;3.23;100.00
9289;BME280;4683;50.864;12.086;2024-01-16T11:58:41;98340.16;;;3.26;100.00
9289;BME280;4683;50.864;12.086;2024-01-16T12:01:18;98331.75;;;3.33;100.00
9289;BME280;4683;50.864;12.086;2024-01-16T12:04:04;98328.75;;;3.19;100.00
9289;BME280;4683;50.864;12.086;2024-01-16T12:06:36;98329.38;;;3.21;100.00
9289;BME280;4683;50.864;12.086;2024-01-16T12:09:14;98325.16;;;3.20;100.00
9289;BME280;4683;50.864;12.086;2024-01-16T12:11:44;98330.25;;;3.30;100.00
9289;BME280;4683;50.864;12.086;2024-01-16T12:14:15;98325.88;;;3.30;100.00
9289;BME280;4683;50.864;12.086;2024-01-16T12:16:46;98318.56;;;3.34;100.00
9289;BME280;4683;50.864;12.086;2024-01-16T12:19:43;98320.38;;;3.34;100.00
9289;BME280;4683;50.864;12.086;2024-01-16T12:22:14;98309.66;;;3.45;100.00
9289;BME280;4683;50.864;12.086;2024-01-16T12:24:46;98308.72;;;3.46;100.00
9289;BME280;4683;50.864;12.086;2024-01-16T12:27:15;98302.41;;;3.30;100.00
9289;BME280;4683;50.864;12.086;2024-01-16T12:29:46;98304.72;;;3.34;100.00
9289;BME280;4683;50.864;12.086;2024-01-16T12:32:42;98300.31;;;3.34;100.00
9289;BME280;4683;50.864;12.086;2024-01-16T12:35:24;98292.34;;;3.36;100.00
9289;BME280;4683;50.864;12.086;2024-01-16T12:38:18;98299.34;;;3.35;100.00
9289;BME280;4683;50.864;12.086;2024-01-16T12:40:53;98296.16;;;3.41;100.00
9289;BME280;4683;50.864;12.086;2024-01-16T12:43:24;98298.00;;;3.57;100.00
9289;BME280;4683;50.864;12.086;2024-01-16T12:46:26;98290.50;;;3.54;100.00
9289;BME280;4683;50.864;12.086;2024-01-16T12:49:40;98294.59;;;3.56;100.00
9289;BME280;4683;50.864;12.086;2024-01-16T12:52:29;98290.03;;;3.59;100.00
9289;BME280;4683;50.864;12.086;2024-01-16T12:55:03;98282.47;;;3.47;100.00
9289;BME280;4683;50.864;12.086;2024-01-16T12:57:36;98281.72;;;3.55;100.00
9289;BME280;4683;50.864;12.086;2024-01-16T13:00:31;98280.34;;;3.43;100.00
9289;BME280;4683;50.864;12.086;2024-01-16T13:03:20;98278.84;;;3.40;100.00
9289;BME280;4683;50.864;12.086;2024-01-16T13:06:07;98278.53;;;3.43;100.00
9289;BME280;4683;50.864;12.086;2024-01-16T13:09:05;98285.81;;;3.31;100.00
9289;BME280;4683;50.864;12.086;2024-01-16T13:11:59;98289.44;;;3.39;100.00
9289;BME280;4683;50.864;12.086;2024-01-16T13:14:53;98282.94;;;3.43;100.00
9289;BME280;4683;50.864;12.086;2024-01-16T13:17:30;98290.59;;;3.44;100.00
9289;BME280;4683;50.864;12.086;2024-01-16T13:20:05;98288.22;;;3.51;100.00
9289;BME280;4683;50.864;12.086;2024-01-16T13:22:44;98283.75;;;3.43;100.00
9289;BME280;4683;50.864;12.086;2024-01-16T13:25:24;98284.53;;;3.36;100.00
9289;BME280;4683;50.864;12.086;2024-01-16T13:28:15;98284.53;;;3.36;100.00
9289;BME280;4683;50.864;12.086;2024-01-16T13:30:56;98288.16;;;3.43;100.00
9289;BME280;4683;50.864;12.086;2024-01-16T13:33:32;98276.41;;;3.39;100.00
9289;BME280;4683;50.864;12.086;2024-01-16T13:36:20;98270.50;;;3.28;100.00
9289;BME280;4683;50.864;12.086;2024-01-16T13:39:14;98271.81;;;3.33;100.00
9289;BME280;4683;50.864;12.086;2024-01-16T13:41:48;98260.47;;;3.42;100.00
9289;BME280;4683;50.864;12.086;2024-01-16T13:44:19;98258.47;;;3.36;100.00
9289;BME280;4683;50.864;12.086;2024-01-16T13:46:58;98258.63;;;3.34;100.00
9289;BME280;4683;50.864;12.086;2024-01-16T13:49:39;98266.59;;;3.33;100.00
9289;BME280;4683;50.864;12.086;2024-01-16T13:52:09;98274.47;;;3.41;100.00
9289;BME280;4683;50.864;12.086;2024-01-16T13:54:41;98279.69;;;3.41;100.00
9289;BME280;4683;50.864;12.086;2024-01-16T13:57:18;98273.44;;;3.34;100.00
9289;BME280;4683;50.864;12.086;2024-01-16T13:59:46;98276.09;;;3.42;100.00
9289;BME280;4683;50.864;12.086;2024-01-16T14:02:17;98267.56;;;3.31;100.00
9289;BME280;4683;50.864;12.086;2024-01-16T14:04:47;98275.38;;;3.31;100.00
9289;BME280;4683;50.864;12.086;2024-01-16T14:07:17;98275.88;;;3.35;100.00